Meteo Giornale » Osservazioni meteo Russia » Alykel
ore: 16:30 - Osservazioni Meteo Alykel
Lat. 69° 19' N Lon. 87° 20' E Alt. 175 metri s.l.m.
11 °C
Nuvoloso
Temp. 24 Ore
6 °C
14 °C
Sud/Sud-Ovest
18 Km/h
Dew point 5 °C
Umidità 66 %
Visibilità 10 Km
Il sole sorge alle ore 05:29
Il sole tramonta alle ore 20:51
| Data e Ora | Cielo e Fenomeni | T °C | DP °C | Um. % | Pres. hPa | Vis. km | Vento km/h | |
|---|---|---|---|---|---|---|---|---|
| Oggi h: 16:30 | Nuvoloso | 11 | 5 | 66 | 1005 | 10 | S/SO 18 | |
| Oggi h: 16:00 | Nuvoloso | 12 | 5 | 62 | 1005 | 10 | S/SO 25.2 | |
| Oggi h: 15:30 | Molto Nuvoloso | 11 | 7 | 76 | 1004 | 10 | SO 18 | |
| Oggi h: 15:00 | Molto Nuvoloso | 11 | 7 | 76 | 1004 | 10 | S/SO 21.6 | |
| Oggi h: 14:30 | Molto Nuvoloso | 10 | 7 | 81 | 1004 | 10 | S/SO 21.6 | |
| Oggi h: 14:00 | Molto Nuvoloso | 9 | 7 | 87 | 1003 | 10 | S 25.2 | |
| Oggi h: 13:30 | Molto Nuvoloso | 9 | 7 | 87 | 1003 | 10 | S 28.8 | |
| Oggi h: 13:00 | Coperto | 10 | 9 | 93 | 1003 | 9 | E 10.8 | |
| Oggi h: 12:30 | Pioggia | 10 | 8 | 87 | 1003 | 9 | E 14.4 | |
| Oggi h: 12:04 | Pioggia | 9 | 8 | 93 | 1003 | 5 | E/NE 10.8 | |
| Oggi h: 12:00 | Pioggia | 9 | 8 | 93 | 1003 | 6 | E/NE 10.8 | |
| Oggi h: 11:30 | Pioggia | 9 | 8 | 93 | 1002 | 9 | N/NE 10.8 | |
| Oggi h: 11:05 | Pioggia | 8 | 6 | 87 | 1002 | 5 | E/NE 10.8 | |
| Oggi h: 11:00 | Pioggia | 8 | 6 | 87 | 1002 | 6 | NE 14.4 | |
| Oggi h: 10:30 | Pioggia | 8 | 6 | 87 | 1002 | 7 | N/NE 14.4 | |
| Oggi h: 10:00 | Sereno | 9 | 6 | 81 | 1002 | 10 | N/NE 14.4 | |
| Oggi h: 09:30 | Sereno | 9 | 6 | 81 | 1002 | 10 | N/NE 14.4 | |
| Oggi h: 09:00 | Sereno | 8 | 6 | 87 | 1002 | 10 | N/NE 18 | |
| Oggi h: 08:30 | Sereno | 8 | 5 | 81 | 1002 | 10 | N/NE 21.6 | |
| Oggi h: 08:00 | Sereno | 8 | 5 | 81 | 1002 | 10 | N/NE 21.6 | |
| Oggi h: 07:30 | Sereno | 7 | 5 | 87 | 1002 | 10 | NE 25.2 | |
| Oggi h: 07:00 | Sereno | 7 | 5 | 87 | 1002 | 10 | N/NE 25.2 | |
| Oggi h: 06:30 | Sereno | 7 | 5 | 87 | 1002 | 10 | NE 25.2 | |
| Oggi h: 06:00 | Sereno | 7 | 5 | 87 | 1003 | 10 | NE 25.2 | |
| Oggi h: 05:30 | Sereno | 6 | 5 | 93 | 1003 | 10 | N/NE 25.2 | |
| Oggi h: 05:00 | Sereno | 6 | 4 | 86 | 1003 | 10 | N/NE 25.2 | |
| Oggi h: 04:30 | Sereno | 6 | 4 | 86 | 1003 | 10 | N/NE 21.6 | |
| Oggi h: 04:00 | Sereno | 6 | 4 | 86 | 1004 | 10 | N/NE 21.6 | |
| Oggi h: 03:00 | Sereno | 6 | 5 | 93 | 1005 | 10 | N/NE 21.6 | |
| Oggi h: 02:00 | Sereno | 7 | 5 | 87 | 1005 | 10 | N/NE 25.2 | |
| Oggi h: 01:00 | Sereno | 7 | 5 | 87 | 1006 | 10 | NE 21.6 | |
| Oggi h: 00:00 | Sereno | 8 | 5 | 81 | 1007 | 10 | N/NE 28.8 | |
| Ieri h: 23:00 | Sereno | 9 | 6 | 81 | 1008 | 10 | N/NE 25.2 | |
| Ieri h: 22:00 | Sereno | 9 | 6 | 81 | 1008 | 10 | N/NE 21.6 | |
| Ieri h: 21:00 | Sereno | 11 | 7 | 76 | 1009 | 10 | N/NE 28.8 | |
| Ieri h: 20:30 | Sereno | 11 | 7 | 76 | 1009 | 10 | N/NE 25.2 | |
| Ieri h: 20:00 | Sereno | 12 | 7 | 71 | 1010 | 10 | N/NE 28.8 | |
| Ieri h: 19:30 | Sereno | 13 | 7 | 66 | 1010 | 10 | N/NE 28.8 | |
| Ieri h: 19:00 | Sereno | 13 | 7 | 66 | 1010 | 10 | N/NE 28.8 | |
| Ieri h: 18:30 | Sereno | 13 | 7 | 66 | 1010 | 10 | N/NE 28.8 | |
| Ieri h: 18:00 | Sereno | 14 | 6 | 58 | 1011 | 10 | N/NE 28.8 | |
| Ieri h: 17:30 | Sereno | 14 | 4 | 50 | 1011 | 10 | NE 25.2 | |
| Ieri h: 17:00 | Sereno | 14 | 3 | 47 | 1011 | 10 | NE 25.2 | |



